Terminal Aerodrome Forecast
Issued by NWS

Home | Current Version | Previous Version | Text Only | Print | Product List | Glossary On
Versions: 1 2 3 4 5 6 7 8 9 10 11 12 13 14 15 16 17
000
FTUS46 KLOX 232100 AAA
TAFBUR
TAF AMD
KBUR 232107Z 2321/2418 05012G20KT P6SM SCT250
     FM232300 35008KT P6SM SCT250
     FM240200 VRB03KT P6SM SCT250=

USA.gov is the U.S. government's official web portal to all federal, state and local government web resources and services.